sensor_id;sensor_type;location;lat;lon;timestamp;pressure;altitude;pressure_sealevel;temperature;humidity
71642;BME280;60657;50.122;14.468;2024-02-21T00:01:35;99013.22616347701;;;9.031433585107195;67.76020447089341
71642;BME280;60657;50.122;14.468;2024-02-21T00:04:46;99014.06230537772;;;9.002059967956058;67.73731593804837
71642;BME280;60657;50.122;14.468;2024-02-21T00:07:58;99007.37327804133;;;8.988708323796445;68.47165636682689
71642;BME280;60657;50.122;14.468;2024-02-21T00:11:09;98999.10577419838;;;8.983367666132601;68.16266117341878
71642;BME280;60657;50.122;14.468;2024-02-21T00:14:20;98996.66693757373;;;9.004730296787976;67.74113069352255
71642;BME280;60657;50.122;14.468;2024-02-21T00:17:31;98989.23455562266;;;9.031433585107195;68.19890135042344
71642;BME280;60657;50.122;14.468;2024-02-21T00:20:42;98987.51709074408;;;8.988708323796445;68.15503166247044
71642;BME280;60657;50.122;14.468;2024-02-21T00:23:53;98987.4248627372;;;8.895246814679176;68.02342259861143
71642;BME280;60657;50.122;14.468;2024-02-21T00:27:04;98977.57734888626;;;8.9593347066453;67.91660944533456
71642;BME280;60657;50.122;14.468;2024-02-21T00:30:15;98974.30161789253;;;8.988708323796445;67.67627985046158
71642;BME280;60657;50.122;14.468;2024-02-21T00:33:26;98976.74148915826;;;8.94331273365377;67.73731593804837
71642;BME280;60657;50.122;14.468;2024-02-21T00:36:37;98981.73405261825;;;8.937972075989926;67.6152437628748
71642;BME280;60657;50.122;14.468;2024-02-21T00:39:48;98970.89057893038;;;8.932631418326082;67.71442740520332
71642;BME280;60657;50.122;14.468;2024-02-21T00:42:59;98975.0242526758;;;8.935301747158007;67.7907225146868
71642;BME280;60657;50.122;14.468;2024-02-21T00:46:10;98971.72641169018;;;8.911268787670707;67.76592660410468
71642;BME280;60657;50.122;14.468;2024-02-21T00:49:21;98961.8320615452;;;8.913939116502632;67.75257495994506
71642;BME280;60657;50.122;14.468;2024-02-21T00:52:32;98966.66577112228;;;8.81513694972152;67.83268482490273
71642;BME280;60657;50.122;14.468;2024-02-21T00:55:42;98966.59658459268;;;8.79644464789807;67.86701762417029
71642;BME280;60657;50.122;14.468;2024-02-21T00:58:53;98949.16028016825;;;8.801785305561914;67.90707255664911
71642;BME280;60657;50.122;14.468;2024-02-21T01:02:04;98956.6820117025;;;8.823147936217289;67.95857175555047
71642;BME280;60657;50.122;14.468;2024-02-21T01:05:15;98949.34116124429;;;8.823147936217289;67.80025940337224
71642;BME280;60657;50.122;14.468;2024-02-21T01:08:26;98936.06003945286;;;8.911268787670707;67.91470206759746
71642;BME280;60657;50.122;14.468;2024-02-21T01:11:37;98945.99854669755;;;8.887235828183414;68.02151522087435
71642;BME280;60657;50.122;14.468;2024-02-21T01:14:48;98938.52248970838;;;8.876554512855726;68.2504005493248
71642;BME280;60657;50.122;14.468;2024-02-21T01:17:59;98942.63361019001;;;8.823147936217289;68.50408178835737
71642;BME280;60657;50.122;14.468;2024-02-21T01:21:12;98937.61984455798;;;8.828488593881133;68.58419165331502
71642;BME280;60657;50.122;14.468;2024-02-21T01:24:23;98935.9486201935;;;8.79644464789807;68.69291218432899
71642;BME280;60657;50.122;14.468;2024-02-21T01:27:34;98915.21652700135;;;8.783093003738458;68.61470969710841
71642;BME280;60657;50.122;14.468;2024-02-21T01:30:45;98917.67854141178;;;8.783093003738458;68.90081635767147
71642;BME280;60657;50.122;14.468;2024-02-21T01:33:56;98910.22601793651;;;8.716334782940415;69.16021972991531
71642;BME280;60657;50.122;14.468;2024-02-21T01:37:07;98901.89414682353;;;8.692301823453114;69.31090257114519
71642;BME280;60657;50.122;14.468;2024-02-21T01:40:18;98900.26745426122;;;8.72968642710002;69.26131074998092
71642;BME280;60657;50.122;14.468;2024-02-21T01:43:31;98901.03663615568;;;8.702983138780802;69.34714274814985
71642;BME280;60657;50.122;14.468;2024-02-21T01:46:42;98902.70739812021;;;8.689631494621196;69.28229190508888
71642;BME280;60657;50.122;14.468;2024-02-21T01:49:53;98890.19931227095;;;8.590829327840083;69.65613794155794
71642;BME280;60657;50.122;14.468;2024-02-21T01:53:04;98887.67109622312;;;8.577477683680478;69.58365758754864
71642;BME280;60657;50.122;14.468;2024-02-21T01:56:16;98881.77905219546;;;8.564126039520865;69.86022735942626
71642;BME280;60657;50.122;14.468;2024-02-21T01:59:28;98881.80155996222;;;8.604180971999696;69.7648584725719
71642;BME280;60657;50.122;14.468;2024-02-21T02:02:39;98876.92343221628;;;8.684290836957352;69.5760280766003
71642;BME280;60657;50.122;14.468;2024-02-21T02:05:52;98881.0110444813;;;8.620202944991227;69.51880674448768
71642;BME280;60657;50.122;14.468;2024-02-21T02:09:03;98873.60457826372;;;8.630884260318915;69.40627145799954
71642;BME280;60657;50.122;14.468;2024-02-21T02:12:14;98876.96728490842;;;8.708323796444645;69.30708781567101
71642;BME280;60657;50.122;14.468;2024-02-21T02:15:25;98862.85664202932;;;8.60952162966354;69.29755092698558
71642;BME280;60657;50.122;14.468;2024-02-21T02:18:36;98870.28577073534;;;8.60952162966354;69.38529030289159
71642;BME280;60657;50.122;14.468;2024-02-21T02:21:49;98873.44878359853;;;8.508049134050509;69.54169527733272
71642;BME280;60657;50.122;14.468;2024-02-21T02:25:04;98863.53818359673;;;8.56679636835279;69.51880674448768
71642;BME280;60657;50.122;14.468;2024-02-21T02:28:16;98865.9542025267;;;8.492027161058978;69.70382238498512
71642;BME280;60657;50.122;14.468;2024-02-21T02:31:27;98863.47110389116;;;8.50003814755474;69.82017242694744
71642;BME280;60657;50.122;14.468;2024-02-21T02:34:38;98851.07779424803;;;8.484016174563209;69.71145189593346
71642;BME280;60657;50.122;14.468;2024-02-21T02:37:50;98839.49707925932;;;8.497367818722822;69.80491340505074
71642;BME280;60657;50.122;14.468;2024-02-21T02:41:01;98841.93633312614;;;8.345159075303272;70.05668726634623
71642;BME280;60657;50.122;14.468;2024-02-21T02:44:12;98838.64023439836;;;8.494697489890896;69.9880216678111
71642;BME280;60657;50.122;14.468;2024-02-21T02:47:23;98827.05977269793;;;8.532082093537802;69.854505226215
71642;BME280;60657;50.122;14.468;2024-02-21T02:50:34;98839.3647110457;;;8.390554665445947;70.09102006561379
71642;BME280;60657;50.122;14.468;2024-02-21T02:53:45;98827.03813052233;;;8.521400778210115;69.96131837949187
71642;BME280;60657;50.122;14.468;2024-02-21T02:56:56;98821.30156648913;;;8.476005188067447;70.01281757839322
71642;BME280;60657;50.122;14.468;2024-02-21T03:00:08;98814.55846514653;;;8.446631570916303;70.11772335393302
71642;BME280;60657;50.122;14.468;2024-02-21T03:03:21;98805.37558345654;;;8.347829404135197;70.39047837033647
71642;BME280;60657;50.122;14.468;2024-02-21T03:06:32;98809.54956257547;;;8.363851377126728;70.3847562371252
71642;BME280;60657;50.122;14.468;2024-02-21T03:09:43;98806.29662074544;;;8.46532387273976;70.28366521705959
71642;BME280;60657;50.122;14.468;2024-02-21T03:12:54;98817.10603794725;;;8.454642557412072;70.27603570611124
71642;BME280;60657;50.122;14.468;2024-02-21T03:16:05;98809.67822332837;;;8.425268940260928;70.32944228274968
71642;BME280;60657;50.122;14.468;2024-02-21T03:19:16;98812.95342216699;;;8.46532387273976;70.38094148165102
71642;BME280;60657;50.122;14.468;2024-02-21T03:22:27;98809.52782382109;;;8.326466773479822;70.4438849469749
71642;BME280;60657;50.122;14.468;2024-02-21T03:25:39;98810.38437000269;;;8.427939269092853;70.51827267872129
71642;BME280;60657;50.122;14.468;2024-02-21T03:28:50;98812.09716918925;;;8.476005188067447;70.30083161669337
71642;BME280;60657;50.122;14.468;2024-02-21T03:32:00;98809.59278699812;;;8.342488746471354;70.53543907835508
71642;BME280;60657;50.122;14.468;2024-02-21T03:35:13;98805.46186711329;;;8.446631570916303;70.47631036850538
71642;BME280;60657;50.122;14.468;2024-02-21T03:38:24;98787.99730369453;;;8.275730525673303;70.84443427176318
71642;BME280;60657;50.122;14.468;2024-02-21T03:41:35;98798.78397725112;;;8.385214007782103;70.69947356374456
71642;BME280;60657;50.122;14.468;2024-02-21T03:44:46;98799.64012025569;;;8.446631570916303;70.50682841229877
71642;BME280;60657;50.122;14.468;2024-02-21T03:47:57;98801.20170104798;;;8.307774471656366;70.98367284657053
71642;BME280;60657;50.122;14.468;2024-02-21T03:51:08;98787.9113089875;;;8.238345922026397;71.02563515678645
71642;BME280;60657;50.122;14.468;2024-02-21T03:54:19;98794.58886544249;;;8.358510719462885;70.9150072480354
71642;BME280;60657;50.122;14.468;2024-02-21T03:57:30;98788.85322947311;;;8.441290913252459;70.85206378271153
71642;BME280;60657;50.122;14.468;2024-02-21T04:00:41;98786.3916841522;;;8.363851377126728;70.9150072480354
71642;BME280;60657;50.122;14.468;2024-02-21T04:03:52;98794.58886544249;;;8.334477759975584;71.08094911116197
71642;BME280;60657;50.122;14.468;2024-02-21T04:07:03;98782.15488592723;;;8.246356908522166;71.16868848706798
71642;BME280;60657;50.122;14.468;2024-02-21T04:10:15;98786.96719810613;;;8.15022507057298;71.43572137026017
71642;BME280;60657;50.122;14.468;2024-02-21T04:13:26;98789.42705806793;;;8.203631647211417;71.63790341039139
71642;BME280;60657;50.122;14.468;2024-02-21T04:16:37;98786.92283448903;;;8.19295033188373;71.68558785381857
71642;BME280;60657;50.122;14.468;2024-02-21T04:19:48;98787.735272158;;;8.168917372396429;71.83627069504844
71642;BME280;60657;50.122;14.468;2024-02-21T04:22:59;98790.17220579808;;;8.12352178225376;71.99649042496375
71642;BME280;60657;50.122;14.468;2024-02-21T04:26:10;98791.88671882972;;;8.219653620202948;71.77714198519875
71642;BME280;60657;50.122;14.468;2024-02-21T04:29:22;98777.03898677205;;;8.187609674219885;71.5940337224384
71642;BME280;60657;50.122;14.468;2024-02-21T04:32:32;98779.36551769593;;;8.02204928664073;71.93926909285115
71642;BME280;60657;50.122;14.468;2024-02-21T04:35:44;98776.04918213007;;;8.12352178225376;71.95452811474784
71642;BME280;60657;50.122;14.468;2024-02-21T04:38:55;98761.97193750474;;;8.072785534447242;72.25970855268177
71642;BME280;60657;50.122;14.468;2024-02-21T04:42:06;98756.96449868371;;;8.126192111085679;72.1528953994049
71642;BME280;60657;50.122;14.468;2024-02-21T04:45:17;98754.54921274862;;;8.139543755245292;72.0060273136492
71642;BME280;60657;50.122;14.468;2024-02-21T04:48:28;98760.21328687729;;;8.072785534447242;72.28259708552682
71642;BME280;60657;50.122;14.468;2024-02-21T04:51:40;98748.61907758356;;;8.035400930800336;72.33218890669109
71642;BME280;60657;50.122;14.468;2024-02-21T04:54:51;98757.68686189369;;;8.003356984817273;72.42946517128252
71642;BME280;60657;50.122;14.468;2024-02-21T04:58:02;98754.37110273172;;;8.02204928664073;72.46379797055009
71642;BME280;60657;50.122;14.468;2024-02-21T05:01:15;98760.23578544022;;;8.003356984817273;72.30357824063478
71642;BME280;60657;50.122;14.468;2024-02-21T05:04:26;98751.91245204191;;;7.936598764019223;72.54200045777065
71642;BME280;60657;50.122;14.468;2024-02-21T05:07:37;98759.33341056941;;;7.971313038834211;72.58968490119783
71642;BME280;60657;50.122;14.468;2024-02-21T05:10:47;98759.37867750165;;;8.02204928664073;72.45807583733882
71642;BME280;60657;50.122;14.468;2024-02-21T05:13:59;98752.76941661446;;;8.075455863279167;72.39894712748912
71642;BME280;60657;50.122;14.468;2024-02-21T05:17:10;98749.49806419645;;;8.086137178606855;72.26161593041886
71642;BME280;60657;50.122;14.468;2024-02-21T05:20:21;98748.64135925063;;;8.027389944304574;72.40657663843747
71642;BME280;60657;50.122;14.468;2024-02-21T05:23:32;98741.89806697593;;;7.944609750514992;72.74036774242771
71642;BME280;60657;50.122;14.468;2024-02-21T05:26:43;98745.28101776858;;;8.048752574959948;72.40085450522622
71642;BME280;60657;50.122;14.468;2024-02-21T05:29:54;98739.50643763943;;;8.02204928664073;72.51911192492561
71642;BME280;60657;50.122;14.468;2024-02-21T05:33:05;98735.31196418381;;;7.941939421683067;72.64881361104753
71642;BME280;60657;50.122;14.468;2024-02-21T05:36:17;98738.58261572251;;;7.9472800793469105;72.57824063477531
71642;BME280;60657;50.122;14.468;2024-02-21T05:39:28;98733.73164960316;;;8.032730601968417;72.40085450522622
71642;BME280;60657;50.122;14.468;2024-02-21T05:42:39;98742.77751365169;;;7.86984054322118;72.80331120775158
71642;BME280;60657;50.122;14.468;2024-02-21T05:45:50;98741.85277712948;;;7.8591592278934925;73.01312275883116
71642;BME280;60657;50.122;14.468;2024-02-21T05:49:01;98741.94302004112;;;7.968642710002285;72.62020294499122
71642;BME280;60657;50.122;14.468;2024-02-21T05:52:12;98743.656593103;;;7.960631723506523;72.8014038300145
71642;BME280;60657;50.122;14.468;2024-02-21T05:55:23;98741.10853031169;;;7.965972381170367;72.96543831540399
71642;BME280;60657;50.122;14.468;2024-02-21T05:58:35;98733.68753571267;;;7.949950408178836;72.9196612497139
71642;BME280;60657;50.122;14.468;2024-02-21T06:01:54;98730.48142905948;;;8.027389944304574;72.64499885557336
71642;BME280;60657;50.122;14.468;2024-02-21T06:05:06;98732.96281494769;;;8.072785534447242;72.5648889906157
71642;BME280;60657;50.122;14.468;2024-02-21T06:08:17;98727.95665365782;;;8.086137178606855;72.55344472419318
71642;BME280;60657;50.122;14.468;2024-02-21T06:11:28;98727.16571580397;;;8.078126192111085;72.54390783550774
71642;BME280;60657;50.122;14.468;2024-02-21T06:14:42;98732.19327746089;;;8.128862439917604;72.32074464026856
71642;BME280;60657;50.122;14.468;2024-02-21T06:17:53;98730.54606021267;;;8.16624704356451;72.46761272602426
71642;BME280;60657;50.122;14.468;2024-02-21T06:21:04;98733.15495983121;;;8.198290989547573;72.41611352712292
71642;BME280;60657;50.122;14.468;2024-02-21T06:24:15;98729.0253930567;;;8.20897230487526;72.22919050888838
71642;BME280;60657;50.122;14.468;2024-02-21T06:27:26;98722.51606159005;;;8.334477759975584;71.9163805600061
71642;BME280;60657;50.122;14.468;2024-02-21T06:30:37;98723.26862624414;;;8.155565728236823;72.07087815671015
71642;BME280;60657;50.122;14.468;2024-02-21T06:33:48;98725.0588111339;;;8.299763485160604;71.94117647058823
71642;BME280;60657;50.122;14.468;2024-02-21T06:36:59;98729.14894282223;;;8.257038223849854;72.04608224612802
71642;BME280;60657;50.122;14.468;2024-02-21T06:40:10;98727.6011547545;;;8.326466773479822;71.61310749980926
71642;BME280;60657;50.122;14.468;2024-02-21T06:43:22;98721.04609587094;;;8.390554665445947;71.63027389944304
71642;BME280;60657;50.122;14.468;2024-02-21T06:46:33;98725.1970545411;;;8.39856565194171;71.55016403448539
71642;BME280;60657;50.122;14.468;2024-02-21T06:49:48;98725.312257668;;;8.569466697184708;71.18394750896468
71642;BME280;60657;50.122;14.468;2024-02-21T06:52:59;98729.42541644032;;;8.46532387273976;71.33653772793164
71642;BME280;60657;50.122;14.468;2024-02-21T06:56:10;98723.73795156383;;;8.638895246814677;71.0485236896315
71642;BME280;60657;50.122;14.468;2024-02-21T06:59:21;98718.04623866959;;;8.724345769436177;70.78339818417639
71642;BME280;60657;50.122;14.468;2024-02-21T07:02:34;98708.87364399564;;;8.606851300831615;71.09430075532158
71642;BME280;60657;50.122;14.468;2024-02-21T07:05:46;98709.77887560808;;;8.721675440604258;71.60547798886091
71642;BME280;60657;50.122;14.468;2024-02-21T07:08:57;98707.27743210206;;;8.569466697184708;70.77958342870222
71642;BME280;60657;50.122;14.468;2024-02-21T07:12:08;98696.57805398443;;;8.807125963225758;70.52399481193255
71642;BME280;60657;50.122;14.468;2024-02-21T07:15:19;98701.61426285273;;;8.799114976729989;70.52018005645839
71642;BME280;60657;50.122;14.468;2024-02-21T07:18:30;98690.07651116731;;;8.860532539864195;70.44007019150072
71642;BME280;60657;50.122;14.468;2024-02-21T07:21:42;98690.04361768927;;;8.812466620889602;70.47058823529412
71642;BME280;60657;50.122;14.468;2024-02-21T07:24:53;98679.30562540736;;;8.876554512855726;70.34470130464638
71642;BME280;60657;50.122;14.468;2024-02-21T07:28:05;98690.17316196658;;;8.983367666132601;70.2092774853132
71642;BME280;60657;50.122;14.468;2024-02-21T07:31:16;98689.29167326106;;;8.895246814679176;70.21690699626154
71642;BME280;60657;50.122;14.468;2024-02-21T07:34:27;98691.03820650878;;;8.983367666132601;69.96704051270314
71642;BME280;60657;50.122;14.468;2024-02-21T07:37:38;98695.12656136854;;;8.897917143511101;70.18448157473107
71642;BME280;60657;50.122;14.468;2024-02-21T07:40:49;98704.19876433887;;;8.79644464789807;70.59266041046769
71642;BME280;60657;50.122;14.468;2024-02-21T07:44:00;98690.10906640523;;;8.903257801174945;70.5468833447776
71642;BME280;60657;50.122;14.468;2024-02-21T07:47:12;98695.86232366135;;;8.876554512855726;70.39047837033647
71642;BME280;60657;50.122;14.468;2024-02-21T07:50:24;98697.49633636631;;;8.804455634393832;70.7223620965896
71642;BME280;60657;50.122;14.468;2024-02-21T07:53:35;98697.52958101929;;;8.820477607385364;70.67658503089952
71642;BME280;60657;50.122;14.468;2024-02-21T07:56:46;98695.81227782117;;;8.817807278553445;70.65178912031739
71642;BME280;60657;50.122;14.468;2024-02-21T07:59:57;98694.2768870408;;;8.948653391317613;70.52590218966964
71642;BME280;60657;50.122;14.468;2024-02-21T08:03:11;98691.74366260145;;;8.895246814679176;70.59647516594187
71642;BME280;60657;50.122;14.468;2024-02-21T08:06:22;98691.00668366317;;;8.94331273365377;70.43816281376364
71642;BME280;60657;50.122;14.468;2024-02-21T08:09:34;98686.90199469225;;;9.015411612115663;70.21118486305028
71642;BME280;60657;50.122;14.468;2024-02-21T08:12:45;98680.3863355021;;;9.082169832913713;70.12153810940718
71642;BME280;60657;50.122;14.468;2024-02-21T08:15:57;98674.47773199556;;;8.988708323796445;70.09674219882505
71642;BME280;60657;50.122;14.468;2024-02-21T08:19:08;98673.74916162739;;;9.087510490577557;69.92507820248721
71642;BME280;60657;50.122;14.468;2024-02-21T08:22:19;98672.11177652357;;;9.084840161745632;69.9136339360647
71642;BME280;60657;50.122;14.468;2024-02-21T08:25:30;98660.64297825258;;;9.298466468299381;69.4272526131075
71642;BME280;60657;50.122;14.468;2024-02-21T08:28:41;98668.12763713174;;;9.223697261005569;69.24414435034714
71642;BME280;60657;50.122;14.468;2024-02-21T08:31:53;98673.04458071472;;;9.084840161745632;69.58556496528573
71642;BME280;60657;50.122;14.468;2024-02-21T08:35:05;98661.42160391355;;;9.199664301518276;69.52262149996186
71642;BME280;60657;50.122;14.468;2024-02-21T08:38:16;98660.70921458327;;;9.319829098954756;69.43869687953003
71642;BME280;60657;50.122;14.468;2024-02-21T08:41:28;98651.66054500997;;;9.4106202792401;69.17929350728619
71642;BME280;60657;50.122;14.468;2024-02-21T08:44:41;98654.82482926434;;;9.175631342030975;69.71717402914473
71642;BME280;60657;50.122;14.468;2024-02-21T08:47:52;98643.25508899325;;;9.19699397268635;69.56839856565195
71642;BME280;60657;50.122;14.468;2024-02-21T08:51:04;98640.01222952288;;;9.378576333257037;69.46349279011216
71642;BME280;60657;50.122;14.468;2024-02-21T08:54:15;98649.1114889453;;;9.242389562829025;69.90218966964217
71642;BME280;60657;50.122;14.468;2024-02-21T08:57:26;98643.40456177396;;;9.472037842374306;69.6179903868162
71642;BME280;60657;50.122;14.468;2024-02-21T09:00:39;98651.6972693896;;;9.394598306248568;69.69047074082552
71642;BME280;60657;50.122;14.468;2024-02-21T09:03:50;98649.14930941368;;;9.375906004425119;70.01853971160449
71642;BME280;60657;50.122;14.468;2024-02-21T09:07:01;98662.41401319305;;;9.279774166475931;70.36568245975432
71642;BME280;60657;50.122;14.468;2024-02-21T09:10:12;98655.63087567751;;;9.16227969787137;71.01991302357519
71642;BME280;60657;50.122;14.468;2024-02-21T09:13:23;98658.11654664068;;;9.138246738384069;70.90737773708705
71642;BME280;60657;50.122;14.468;2024-02-21T09:16:35;98666.29346100392;;;9.028763256275276;71.39566643778134
71642;BME280;60657;50.122;14.468;2024-02-21T09:19:46;98658.00459899088;;;9.090180819409476;71.73136491950866
71642;BME280;60657;50.122;14.468;2024-02-21T09:22:57;98656.46396628153;;;9.172961013199057;71.65697718776227
71642;BME280;60657;50.122;14.468;2024-02-21T09:26:08;98649.07290566435;;;9.170290684367131;71.39185168230716
71642;BME280;60657;50.122;14.468;2024-02-21T09:29:20;98646.74785335646;;;9.394598306248568;70.3847562371252
71642;BME280;60657;50.122;14.468;2024-02-21T09:32:31;98645.30208275307;;;9.731059739070723;69.93652246890974
71642;BME280;60657;50.122;14.468;2024-02-21T09:35:42;98642.2537599775;;;10.206378271152822;68.24658579385061
71642;BME280;60657;50.122;14.468;2024-02-21T09:38:53;98632.37574331931;;;10.321202410925459;67.40733958953231
71642;BME280;60657;50.122;14.468;2024-02-21T09:42:06;98618.32487435619;;;10.59090562294957;66.95910582131685
71642;BME280;60657;50.122;14.468;2024-02-21T09:45:19;98603.46111648316;;;11.023498893720912;65.45990691996643
71642;BME280;60657;50.122;14.468;2024-02-21T09:48:38;98599.33950702124;;;11.199740596627755;64.34027618829633
71642;BME280;60657;50.122;14.468;2024-02-21T09:52:09;98583.44119339017;;;12.064927138170447;61.9427023727779
71642;BME280;60657;50.122;14.468;2024-02-21T09:55:24;98584.14388406857;;;12.502861066605632;60.882200350957504
71642;BME280;60657;50.122;14.468;2024-02-21T09:58:38;98558.02629333851;;;13.0235751888304;59.083543144884416
71642;BME280;60657;50.122;14.468;2024-02-21T10:01:51;98551.08522836975;;;13.434805828946367;57.33066300450141
71642;BME280;60657;50.122;14.468;2024-02-21T10:05:03;98559.29428209644;;;13.581673914702066;56.74128328374151
71642;BME280;60657;50.122;14.468;2024-02-21T10:08:16;98545.335992402;;;14.246585793850613;54.79957274738689
71642;BME280;60657;50.122;14.468;2024-02-21T10:11:30;98533.02929028307;;;14.545662623025862;53.93362325474937
71642;BME280;60657;50.122;14.468;2024-02-21T10:14:42;98542.59964267083;;;14.999618524452579;52.67284657053483
71642;BME280;60657;50.122;14.468;2024-02-21T10:17:58;98549.61462682862;;;13.81666285191119;54.76714732585641
71642;BME280;60657;50.122;14.468;2024-02-21T10:21:10;98559.50282320054;;;13.08232242313268;56.2568093385214
71642;BME280;60657;50.122;14.468;2024-02-21T10:24:25;98557.71113572642;;;13.400091554131379;56.43610284580758
71642;BME280;60657;50.122;14.468;2024-02-21T10:27:37;98551.09748930881;;;13.173113603418024;56.895780880445564
71642;BME280;60657;50.122;14.468;2024-02-21T10:30:50;98544.0561161201;;;13.683146410315096;56.03173876554513
71642;BME280;60657;50.122;14.468;2024-02-21T10:34:02;98533.22496825951;;;14.49492637521935;54.18539711604486
71642;BME280;60657;50.122;14.468;2024-02-21T10:37:13;98517.20082270788;;;15.162508583199816;51.42160677500572
71642;BME280;60657;50.122;14.468;2024-02-21T10:40:25;98522.02841292978;;;15.31204699778744;50.69489585717555
71642;BME280;60657;50.122;14.468;2024-02-21T10:43:40;98514.53557137039;;;15.827420462348364;50.04829480430305
71642;BME280;60657;50.122;14.468;2024-02-21T10:46:51;98501.44719512117;;;15.958266575112532;48.364080262455175
71642;BME280;60657;50.122;14.468;2024-02-21T10:50:05;98496.27680650746;;;16.022354467078664;48.047455558098726
71642;BME280;60657;50.122;14.468;2024-02-21T10:53:28;98504.19225251662;;;16.177233539330132;47.99404898146029
71642;BME280;60657;50.122;14.468;2024-02-21T10:56:54;98495.98652910226;;;16.422903791866943;46.17441062027924
71642;BME280;60657;50.122;14.468;2024-02-21T11:00:12;98491.36971760905;;;15.728618295567252;47.6240177004654
71642;BME280;60657;50.122;14.468;2024-02-21T11:03:30;98501.07072115713;;;15.67788204776074;48.06843671320669
71642;BME280;60657;50.122;14.468;2024-02-21T11:06:43;98504.48893004289;;;14.967574578469517;49.26817730983444
71642;BME280;60657;50.122;14.468;2024-02-21T11:09:56;98518.20857667252;;;14.056992446784164;51.66384374761578
71642;BME280;60657;50.122;14.468;2024-02-21T11:13:08;98530.5563660275;;;13.66979476615549;53.35187304493782
71642;BME280;60657;50.122;14.468;2024-02-21T11:16:22;98533.44238134034;;;13.360036621652554;54.208285648889905
71642;BME280;60657;50.122;14.468;2024-02-21T11:19:34;98541.9084094606;;;13.35469596398871;55.057068741893644
71642;BME280;60657;50.122;14.468;2024-02-21T11:22:45;98541.25707733711;;;13.010223544670787;55.29549095902953
71642;BME280;60657;50.122;14.468;2024-02-21T11:26:03;98541.47417271498;;;12.772564278629737;56.308308537422754
71642;BME280;60657;50.122;14.468;2024-02-21T11:29:15;98538.30137929159;;;12.422751201647976;57.2295719844358
71642;BME280;60657;50.122;14.468;2024-02-21T11:32:34;98512.61938369203;;;12.078278782330052;58.0974288548104
71642;BME280;60657;50.122;14.468;2024-02-21T11:35:48;98525.16964337869;;;12.075608453498134;58.520866712443734
71642;BME280;60657;50.122;14.468;2024-02-21T11:39:03;98520.96860073954;;;12.230487525749602;58.36827649347677